Farmington, Maine
Current Conditions -  °F | °C
As of 7:55 PM on Tuesday 21 Oct 2014 (Local Time) from KWVL Reporting Station
Overcast Overcast  
Wind Chill: 38°   Ceiling: 900
Heat Index: 45°   Visibility: 8mi
Dew Point: 39°   Wind: 15mph
Humidity: 81%   Direction: 10°N
Pressure: 30.07"   Gusts: NA
Location:  44.67°N, 70.15°W
Report Text: KWVL 212355Z 01013KT 8SM OVC009 07/04 A3007 RMK AO1 P0015 60040 10110 20070 401100040 52010
Loading
Personal Weather Stations






























Interactive Weather Map
Tropical Storm Tracking
New forecast layout! Learn more

10-Day Weather Forecast

Advertisements
Track Severe Weather on mobile